Time;durP1;ratioP1;P1;durP2;ratioP2;P2;SDS_P1;SDS_P2;PMS_P1;PMS_P2;Temp;Humidity;BMP_temperature;BMP_pressure;BME280_temperature;BME280_humidity;BME280_pressure;Samples;Min_cycle;Max_cycle;Signal;HPM_P1;HPM_P2
2022/08/05 04:02:21;;;;;;;4.53;3.87;;;24.40;99.30;;;;;;5153202;23;20541;-64
2022/08/05 04:04:48;;;;;;;5.97;4.40;;;24.40;99.90;;;;;;4976929;28;20479;-65
2022/08/05 04:07:15;;;;;;;5.70;4.30;;;24.40;99.90;;;;;;4977185;28;20443;-65
2022/08/05 04:09:42;;;;;;;4.13;3.70;;;24.30;99.90;;;;;;4977568;28;20462;-64
2022/08/05 04:12:09;;;;;;;4.10;3.70;;;24.30;99.90;;;;;;4976903;28;20475;-64
2022/08/05 04:14:36;;;;;;;7.87;5.03;;;24.30;99.90;;;;;;4977259;28;20458;-66
2022/08/05 04:17:03;;;;;;;7.20;3.70;;;24.20;99.90;;;;;;4976648;28;20458;-65
2022/08/05 04:19:31;;;;;;;8.20;3.80;;;24.20;99.90;;;;;;4976906;28;20454;-65
2022/08/05 04:21:58;;;;;;;4.97;3.80;;;24.20;99.90;;;;;;4976683;28;20478;-65
2022/08/05 04:24:25;;;;;;;6.43;3.43;;;24.30;99.90;;;;;;4976719;28;20459;-64
2022/08/05 04:26:51;;;;;;;4.80;4.00;;;24.30;99.90;;;;;;4977084;28;20454;-65
2022/08/05 04:29:18;;;;;;;7.57;3.50;;;24.20;99.90;;;;;;4977009;28;20521;-65
2022/08/05 04:31:45;;;;;;;8.17;4.67;;;24.20;99.90;;;;;;4976945;28;20483;-65
2022/08/05 04:34:12;;;;;;;9.23;5.57;;;24.20;99.90;;;;;;4977058;28;20461;-65
2022/08/05 04:36:40;;;;;;;11.10;4.00;;;24.20;99.90;;;;;;4978255;28;20457;-64
2022/08/05 04:39:06;;;;;;;8.13;4.40;;;24.20;99.90;;;;;;4976773;28;20451;-65
2022/08/05 04:41:33;;;;;;;5.83;4.27;;;24.20;99.90;;;;;;4976389;28;20474;-65
2022/08/05 04:44:00;;;;;;;10.80;4.13;;;24.20;99.90;;;;;;4976320;28;20461;-65
2022/08/05 04:46:26;;;;;;;13.80;4.53;;;24.30;99.90;;;;;;4975932;28;20479;-65
2022/08/05 04:48:53;;;;;;;4.57;3.43;;;24.30;99.90;;;;;;4976220;28;20465;-62
2022/08/05 04:51:20;;;;;;;6.60;4.77;;;24.40;99.90;;;;;;4976240;28;20838;-62
2022/08/05 04:53:48;;;;;;;7.10;4.30;;;24.50;99.90;;;;;;4976038;28;20455;-63
2022/08/05 04:56:15;;;;;;;9.07;4.93;;;24.50;99.90;;;;;;4976174;28;20455;-63
2022/08/05 04:58:41;;;;;;;6.70;4.73;;;24.60;99.90;;;;;;4976099;28;20438;-63
2022/08/05 05:01:08;;;;;;;4.67;4.10;;;24.60;99.90;;;;;;4975540;28;21008;-63
2022/08/05 05:03:35;;;;;;;7.70;4.33;;;24.70;99.90;;;;;;4976101;28;20474;-63
2022/08/05 05:06:02;;;;;;;5.80;4.33;;;24.80;99.90;;;;;;4976362;28;20474;-62
2022/08/05 05:08:28;;;;;;;9.70;5.00;;;24.90;99.90;;;;;;4975978;28;20455;-63
2022/08/05 05:10:56;;;;;;;5.80;4.57;;;25.00;99.90;;;;;;4975723;28;20537;-62
2022/08/05 05:13:23;;;;;;;5.73;4.83;;;25.00;99.90;;;;;;4975706;28;20455;-63
2022/08/05 05:15:50;;;;;;;8.63;4.50;;;25.00;99.90;;;;;;4976161;28;20817;-63
2022/08/05 05:18:17;;;;;;;7.90;5.30;;;25.10;99.90;;;;;;4975676;28;20465;-63
2022/08/05 05:20:44;;;;;;;8.17;4.93;;;25.20;99.90;;;;;;4975720;28;20485;-64
2022/08/05 05:23:12;;;;;;;5.73;5.33;;;25.30;99.90;;;;;;4975573;28;20461;-63
2022/08/05 05:25:40;;;;;;;11.30;4.83;;;25.30;99.90;;;;;;4975470;28;20510;-63
2022/08/05 05:28:09;;;;;;;13.87;5.90;;;25.40;99.90;;;;;;4975463;28;20820;-64
2022/08/05 05:30:36;;;;;;;9.93;5.50;;;25.40;99.90;;;;;;4975367;28;20501;-64
2022/08/05 05:33:04;;;;;;;9.60;4.60;;;25.50;99.90;;;;;;4974711;28;20966;-64
2022/08/05 05:35:32;;;;;;;6.83;5.00;;;25.50;99.90;;;;;;4975372;28;20454;-63
2022/08/05 05:38:01;;;;;;;10.23;5.47;;;25.60;99.90;;;;;;4975392;28;20458;-65
2022/08/05 05:40:30;;;;;;;6.33;5.23;;;25.70;99.90;;;;;;4976100;28;20469;-64
2022/08/05 05:42:57;;;;;;;12.33;5.20;;;25.80;99.90;;;;;;4976846;28;20462;-66
2022/08/05 05:45:25;;;;;;;5.25;4.45;;;26.00;99.90;;;;;;4974463;28;20481;-66
2022/08/05 05:47:52;;;;;;;8.57;4.27;;;26.10;99.90;;;;;;4975387;28;20562;-65
2022/08/05 05:50:19;;;;;;;9.83;5.73;;;26.20;99.90;;;;;;4975186;28;20458;-65
2022/08/05 05:52:47;;;;;;;5.30;4.17;;;26.30;99.90;;;;;;4974962;28;20550;-65
2022/08/05 05:55:15;;;;;;;10.03;5.33;;;26.30;99.90;;;;;;4974874;28;20933;-65
2022/08/05 05:57:43;;;;;;;6.13;4.87;;;26.40;99.90;;;;;;4975056;28;20454;-65
2022/08/05 06:00:12;;;;;;;7.23;4.17;;;26.40;99.90;;;;;;4975502;28;20517;-65
2022/08/05 06:02:41;;;;;;;7.27;3.97;;;26.40;99.90;;;;;;4974754;28;20529;-65
2022/08/05 06:05:09;;;;;;;5.67;4.00;;;26.40;99.90;;;;;;4974951;28;20478;-65
2022/08/05 06:07:36;;;;;;;6.60;3.50;;;26.50;99.90;;;;;;4975014;28;20505;-65
2022/08/05 06:10:03;;;;;;;5.00;4.57;;;26.60;99.90;;;;;;4975035;28;20458;-65
2022/08/05 06:12:30;;;;;;;4.83;3.93;;;26.70;99.90;;;;;;4974950;28;20482;-65
2022/08/05 06:14:57;;;;;;;6.10;4.40;;;26.80;99.90;;;;;;4975024;28;20459;-65
2022/08/05 06:17:23;;;;;;;4.50;4.10;;;26.90;99.90;;;;;;4974537;28;20965;-65
2022/08/05 06:19:51;;;;;;;6.70;3.63;;;26.90;99.90;;;;;;4975017;28;20533;-65
2022/08/05 06:22:24;;;;;;;5.23;4.73;;;27.10;99.90;;;;;;4974982;28;20474;-65
2022/08/05 06:24:51;;;;;;;4.40;3.63;;;27.20;99.80;;;;;;4975152;28;20445;-65
2022/08/05 06:27:18;;;;;;;4.20;3.90;;;27.20;99.60;;;;;;4974716;28;20800;-65
2022/08/05 06:29:45;;;;;;;6.23;3.73;;;27.50;99.10;;;;;;4974818;28;20506;-65
2022/08/05 06:32:12;;;;;;;6.40;3.33;;;27.80;98.20;;;;;;4975675;28;20482;-65
2022/08/05 06:34:39;;;;;;;7.50;4.60;;;28.10;96.80;;;;;;4974921;28;20454;-65
2022/08/05 06:37:07;;;;;;;8.87;4.03;;;28.50;95.80;;;;;;4974897;28;20538;-65
2022/08/05 06:39:34;;;;;;;4.00;3.70;;;28.80;94.80;;;;;;4974672;28;20458;-65
2022/08/05 06:42:02;;;;;;;4.40;3.67;;;29.10;94.20;;;;;;4974510;28;20478;-65
2022/08/05 06:44:29;;;;;;;5.70;4.23;;;29.30;93.30;;;;;;4975216;28;20450;-65
2022/08/05 06:46:57;;;;;;;5.00;3.60;;;29.60;92.70;;;;;;4978924;28;20478;-65
2022/08/05 06:49:25;;;;;;;3.53;3.23;;;29.80;91.40;;;;;;4978492;28;20451;-65
2022/08/05 06:51:52;;;;;;;5.73;3.87;;;29.90;91.30;;;;;;4978464;28;20561;-64
2022/08/05 06:54:20;;;;;;;4.03;3.40;;;30.30;90.90;;;;;;4978095;28;20952;-64
2022/08/05 06:56:46;;;;;;;4.27;3.87;;;30.70;90.20;;;;;;4978005;28;20454;-65
2022/08/05 06:59:14;;;;;;;7.23;3.67;;;31.10;87.50;;;;;;4978437;28;20506;-65
2022/08/05 07:01:40;;;;;;;4.00;3.20;;;31.30;85.10;;;;;;4977687;28;20486;-65
2022/08/05 07:04:07;;;;;;;4.07;3.77;;;31.40;84.30;;;;;;4977989;28;20820;-64
2022/08/05 07:06:34;;;;;;;6.00;3.60;;;31.30;83.30;;;;;;4978118;28;20482;-64
2022/08/05 07:09:01;;;;;;;3.53;3.23;;;31.00;83.30;;;;;;4978243;28;20451;-64
2022/08/05 07:11:29;;;;;;;4.57;3.80;;;30.80;83.80;;;;;;4978727;28;20533;-64
2022/08/05 07:16:49;;;;;;;3.47;3.17;;;30.50;84.10;;;;;;4978275;28;20422;-64
2022/08/05 07:19:17;;;;;;;3.43;3.23;;;30.60;84.50;;;;;;4977708;28;20878;-65
2022/08/05 07:21:44;;;;;;;3.30;3.10;;;30.80;83.80;;;;;;4978069;28;20479;-65
2022/08/05 07:24:10;;;;;;;4.30;4.00;;;30.90;82.70;;;;;;4977780;28;20528;-65
2022/08/05 07:26:39;;;;;;;3.40;3.20;;;31.20;83.30;;;;;;4977541;28;20483;-65
2022/08/05 07:29:06;;;;;;;8.03;3.60;;;31.30;81.50;;;;;;4977851;28;20458;-65
2022/08/05 07:31:33;;;;;;;4.20;3.53;;;31.60;80.00;;;;;;4977710;28;20478;-65
2022/08/05 07:34:00;;;;;;;6.73;3.50;;;32.00;78.30;;;;;;4977491;28;20455;-65
2022/08/05 07:36:27;;;;;;;3.43;3.23;;;32.40;76.70;;;;;;4978071;28;20534;-65
2022/08/05 07:38:53;;;;;;;3.17;2.93;;;32.40;74.10;;;;;;4976947;28;20461;-65
2022/08/05 07:41:22;;;;;;;3.10;2.73;;;32.50;74.30;;;;;;4977031;28;20485;-66
2022/08/05 07:43:51;;;;;;;4.57;3.00;;;33.00;72.90;;;;;;4977445;28;20469;-66
2022/08/05 07:46:18;;;;;;;3.33;3.00;;;33.50;70.30;;;;;;4977230;28;20519;-65
2022/08/05 07:48:44;;;;;;;4.23;2.57;;;34.10;69.80;;;;;;4977301;28;20456;-65
2022/08/05 07:51:11;;;;;;;2.57;2.40;;;34.60;65.80;;;;;;4977197;28;20486;-65
2022/08/05 07:53:38;;;;;;;2.47;2.27;;;34.50;61.50;;;;;;4977259;28;20487;-66
2022/08/05 07:56:05;;;;;;;2.30;2.20;;;34.60;60.60;;;;;;4976721;28;20458;-66
2022/08/05 07:58:32;;;;;;;2.57;2.33;;;34.50;58.40;;;;;;4977267;28;20458;-66
2022/08/05 08:01:00;;;;;;;2.40;2.30;;;34.50;58.60;;;;;;4976698;28;20993;-66
2022/08/05 08:03:27;;;;;;;2.70;2.53;;;34.60;59.20;;;;;;4977297;28;20462;-65
2022/08/05 08:05:53;;;;;;;2.63;2.40;;;34.20;58.70;;;;;;4977671;28;20478;-65
2022/08/05 08:08:20;;;;;;;3.03;2.40;;;34.10;59.00;;;;;;4977760;28;20824;-65
2022/08/05 08:10:47;;;;;;;3.23;2.63;;;33.90;59.20;;;;;;4977013;28;20482;-65
2022/08/05 08:13:14;;;;;;;2.90;2.60;;;34.10;59.10;;;;;;4977571;28;20460;-65
2022/08/05 08:15:40;;;;;;;2.77;2.57;;;33.70;58.60;;;;;;4977977;28;20486;-65
2022/08/05 08:18:09;;;;;;;2.90;2.70;;;33.90;61.10;;;;;;4976855;28;20450;-66
2022/08/05 08:20:35;;;;;;;2.27;2.17;;;34.40;59.10;;;;;;4976834;28;20474;-65
2022/08/05 08:23:02;;;;;;;2.33;2.13;;;34.90;56.70;;;;;;4976891;28;20454;-65
2022/08/05 08:25:29;;;;;;;2.30;2.20;;;35.30;57.00;;;;;;4976547;28;20454;-65
2022/08/05 08:27:58;;;;;;;2.00;1.90;;;35.80;55.70;;;;;;4976373;28;20454;-65
2022/08/05 08:30:25;;;;;;;2.90;2.63;;;36.30;54.40;;;;;;4977264;28;20540;-65
2022/08/05 08:32:52;;;;;;;2.20;2.10;;;36.60;54.50;;;;;;4976714;28;20454;-65
2022/08/05 08:35:20;;;;;;;2.33;2.00;;;37.00;52.60;;;;;;4976408;28;20469;-65
2022/08/05 08:37:47;;;;;;;2.80;2.60;;;37.30;51.90;;;;;;4976427;28;20863;-66
2022/08/05 08:40:13;;;;;;;2.10;2.00;;;37.40;51.40;;;;;;4979204;28;20439;-66
2022/08/05 08:42:40;;;;;;;4.43;2.23;;;37.30;52.30;;;;;;4979050;28;20461;-67
2022/08/05 08:45:09;;;;;;;2.27;2.07;;;37.70;51.50;;;;;;4979563;28;20454;-65
2022/08/05 08:47:36;;;;;;;2.23;2.13;;;37.80;51.80;;;;;;4976554;28;20485;-65
2022/08/05 08:50:05;;;;;;;2.33;2.23;;;37.60;51.30;;;;;;4977127;28;20469;-66
2022/08/05 08:52:36;;;;;;;2.50;2.40;;;37.30;51.90;;;;;;4976445;28;20471;-67
2022/08/05 08:55:03;;;;;;;2.33;2.00;;;37.10;52.20;;;;;;4976505;28;20508;-65
2022/08/05 08:57:30;;;;;;;2.10;2.10;;;37.30;51.40;;;;;;4976296;28;20450;-66
2022/08/05 08:59:58;;;;;;;2.50;2.27;;;37.40;50.70;;;;;;4975889;28;21013;-66
2022/08/05 09:02:25;;;;;;;2.37;2.27;;;37.50;50.30;;;;;;4975978;28;20562;-65
2022/08/05 09:04:52;;;;;;;2.53;2.43;;;37.90;51.20;;;;;;4975746;28;20961;-65
2022/08/05 09:07:19;;;;;;;3.90;2.10;;;38.40;49.60;;;;;;4975239;28;20478;-65
2022/08/05 09:09:47;;;;;;;2.40;2.20;;;38.70;48.80;;;;;;4975862;28;20454;-65
2022/08/05 09:12:14;;;;;;;2.67;2.47;;;38.90;48.50;;;;;;4975522;28;21015;-65
2022/08/05 09:14:41;;;;;;;2.37;2.17;;;39.30;48.20;;;;;;4975903;28;20454;-65
2022/08/05 09:17:11;;;;;;;2.50;2.40;;;39.50;46.10;;;;;;4975538;28;20817;-66
2022/08/05 09:19:38;;;;;;;2.27;2.17;;;39.10;47.20;;;;;;4975959;28;20450;-66
2022/08/05 09:22:07;;;;;;;3.20;2.10;;;39.40;47.30;;;;;;4975613;28;20477;-65
2022/08/05 09:24:35;;;;;;;3.50;2.33;;;39.70;46.20;;;;;;4975417;28;21014;-65
2022/08/05 09:27:08;;;;;;;2.17;2.07;;;40.00;46.00;;;;;;4975822;28;20501;-66
2022/08/05 09:29:41;;;;;;;2.57;2.40;;;39.80;45.30;;;;;;4975928;28;20442;-65
2022/08/05 09:32:08;;;;;;;3.53;2.47;;;39.60;45.90;;;;;;4975044;28;21057;-65
2022/08/05 09:34:49;;;;;;;2.00;1.90;;;39.60;45.20;;;;;;4975264;28;20454;-65
2022/08/05 09:37:21;;;;;;;2.10;2.00;;;39.30;44.70;;;;;;4975116;28;20949;-65
2022/08/05 09:39:48;;;;;;;2.03;1.90;;;39.20;45.80;;;;;;4975470;28;20806;-65
2022/08/05 09:42:17;;;;;;;2.23;2.03;;;39.60;45.30;;;;;;4975229;28;20485;-65
2022/08/05 09:44:45;;;;;;;2.63;1.90;;;39.60;44.60;;;;;;4975519;28;20493;-64
2022/08/05 09:47:15;;;;;;;1.90;1.80;;;39.70;46.10;;;;;;4975592;28;20484;-64
2022/08/05 09:49:45;;;;;;;2.10;2.00;;;40.20;44.80;;;;;;4975946;28;20458;-63
2022/08/05 09:52:24;;;;;;;2.20;2.10;;;40.30;43.50;;;;;;4976959;28;20474;-63
2022/08/05 09:54:59;;;;;;;1.80;1.70;;;40.50;43.40;;;;;;4975312;28;20909;-65
2022/08/05 09:57:32;;;;;;;2.20;2.10;;;40.60;43.60;;;;;;4975931;28;20536;-64
2022/08/05 10:00:00;;;;;;;2.43;2.23;;;40.80;42.30;;;;;;4975363;28;20183;-65
2022/08/05 10:02:34;;;;;;;1.90;1.80;;;41.10;41.80;;;;;;4974957;28;20856;-65
2022/08/05 10:05:08;;;;;;;2.03;1.93;;;41.50;41.60;;;;;;4975354;28;20277;-65
2022/08/05 10:07:50;;;;;;;2.30;2.10;;;41.10;41.40;;;;;;4975244;28;20243;-64
2022/08/05 10:10:19;;;;;;;2.30;2.20;;;41.00;42.20;;;;;;4975016;28;20464;-65
2022/08/05 10:12:49;;;;;;;2.20;2.10;;;41.20;42.20;;;;;;4975674;28;20199;-65
2022/08/05 10:15:18;;;;;;;2.10;1.90;;;41.60;40.90;;;;;;4975410;28;20183;-65
2022/08/05 10:18:04;;;;;;;2.07;1.97;;;41.20;42.00;;;;;;4974910;28;20197;-65
2022/08/05 10:20:31;;;;;;;2.40;2.30;;;41.20;43.30;;;;;;4979027;28;20197;-65
2022/08/05 10:22:59;;;;;;;2.60;2.40;;;41.50;41.50;;;;;;4979008;28;20198;-65
2022/08/05 10:25:26;;;;;;;2.00;1.90;;;42.20;40.50;;;;;;4978799;28;20547;-66
2022/08/05 10:27:54;;;;;;;4.27;2.27;;;42.40;42.10;;;;;;4978987;28;20596;-65
2022/08/05 10:30:22;;;;;;;2.60;2.40;;;42.50;40.80;;;;;;4978798;28;20198;-65
2022/08/05 10:32:49;;;;;;;2.23;2.13;;;42.20;41.40;;;;;;4979011;28;20250;-65
2022/08/05 10:35:15;;;;;;;2.40;2.20;;;42.30;40.30;;;;;;4978964;28;20209;-65
2022/08/05 10:37:43;;;;;;;3.27;2.33;;;42.30;40.60;;;;;;4978380;28;20195;-66
2022/08/05 10:40:19;;;;;;;2.43;2.23;;;42.30;40.40;;;;;;4978495;28;20562;-65
2022/08/05 10:42:50;;;;;;;2.00;1.90;;;42.10;40.10;;;;;;4979351;28;20186;-65
2022/08/05 10:45:25;;;;;;;2.10;2.00;;;41.90;40.20;;;;;;4978647;28;20195;-65
2022/08/05 10:47:53;;;;;;;2.67;2.30;;;42.20;40.10;;;;;;4978694;28;20547;-65
2022/08/05 10:50:20;;;;;;;2.13;1.90;;;42.10;40.20;;;;;;4978283;28;20663;-65
2022/08/05 10:52:54;;;;;;;2.10;2.00;;;41.60;39.50;;;;;;4978616;28;20249;-65
2022/08/05 10:55:21;;;;;;;4.03;2.23;;;41.60;41.00;;;;;;4978615;28;20549;-65
2022/08/05 10:57:47;;;;;;;4.50;2.30;;;41.70;40.40;;;;;;4979195;28;20198;-65
2022/08/05 11:00:17;;;;;;;2.70;2.20;;;41.70;41.20;;;;;;4978574;28;20199;-66
2022/08/05 11:03:10;;;;;;;1.97;1.87;;;42.10;40.70;;;;;;4978424;28;20685;-65
2022/08/05 11:05:38;;;;;;;1.93;1.83;;;41.90;40.50;;;;;;4978230;28;20211;-65
2022/08/05 11:08:06;;;;;;;2.27;2.17;;;42.20;39.30;;;;;;4978021;28;20753;-65
2022/08/05 11:10:35;;;;;;;6.17;2.57;;;42.30;39.80;;;;;;4978276;28;20226;-64
2022/08/05 11:13:03;;;;;;;1.90;1.90;;;42.30;39.50;;;;;;4978321;28;20228;-64
2022/08/05 11:15:34;;;;;;;2.43;2.23;;;42.30;39.40;;;;;;4978054;28;20199;-65
2022/08/05 11:18:08;;;;;;;2.20;2.00;;;42.10;39.90;;;;;;4978170;28;20186;-65
2022/08/05 11:20:39;;;;;;;1.97;1.87;;;42.10;40.70;;;;;;4978410;28;20222;-65
2022/08/05 11:23:35;;;;;;;1.70;1.60;;;42.00;39.20;;;;;;4978257;28;20183;-65
2022/08/05 11:26:07;;;;;;;2.80;2.27;;;41.70;39.20;;;;;;4977908;28;20627;-64
2022/08/05 11:28:38;;;;;;;1.90;1.80;;;41.50;40.00;;;;;;4977727;28;20276;-65
2022/08/05 11:31:35;;;;;;;2.70;2.17;;;41.30;39.10;;;;;;4977006;28;20218;-64
2022/08/05 11:34:04;;;;;;;2.00;1.90;;;41.10;39.50;;;;;;4977474;28;20548;-66
2022/08/05 11:36:50;;;;;;;2.27;2.00;;;41.00;40.70;;;;;;4977513;28;20454;-65
2022/08/05 11:39:32;;;;;;;2.30;2.20;;;40.50;40.50;;;;;;4977490;28;20202;-65
2022/08/05 11:42:00;;;;;;;2.43;2.23;;;40.30;40.60;;;;;;4968552;28;20485;-65
2022/08/05 11:44:37;;;;;;;2.17;2.07;;;40.10;41.10;;;;;;4977658;28;20512;-65
2022/08/05 11:47:05;;;;;;;2.27;2.17;;;40.10;41.60;;;;;;4977255;28;20516;-65
2022/08/05 11:49:32;;;;;;;2.37;2.03;;;39.80;42.00;;;;;;4977459;28;20464;-65
2022/08/05 11:52:00;;;;;;;2.30;2.20;;;39.50;42.00;;;;;;4977367;28;20473;-65
2022/08/05 11:54:31;;;;;;;2.13;2.00;;;39.00;43.20;;;;;;4977982;28;20508;-65
2022/08/05 11:56:59;;;;;;;2.50;2.30;;;38.80;42.90;;;;;;4977166;28;20871;-66
2022/08/05 11:59:28;;;;;;;4.47;2.37;;;38.70;43.20;;;;;;4977324;28;20454;-65
2022/08/05 12:01:57;;;;;;;3.70;2.00;;;38.70;43.30;;;;;;4976887;28;20573;-65
2022/08/05 12:04:24;;;;;;;2.40;2.13;;;38.70;42.40;;;;;;4977317;28;20818;-65
2022/08/05 12:06:52;;;;;;;3.00;2.00;;;38.60;43.00;;;;;;4977073;28;20817;-65
2022/08/05 12:09:23;;;;;;;1.90;1.80;;;38.60;43.20;;;;;;4977035;28;20458;-65
2022/08/05 12:11:50;;;;;;;2.03;1.90;;;38.50;43.80;;;;;;4977116;28;20497;-65
2022/08/05 12:14:17;;;;;;;2.03;1.93;;;38.50;43.90;;;;;;4976406;28;20845;-65
2022/08/05 12:16:46;;;;;;;2.23;2.10;;;38.50;43.20;;;;;;4976915;28;20855;-65
2022/08/05 12:19:14;;;;;;;2.13;1.87;;;38.20;42.70;;;;;;4976732;28;20516;-65
2022/08/05 12:21:46;;;;;;;2.17;1.90;;;37.70;43.70;;;;;;4976586;28;20981;-65
2022/08/05 12:24:16;;;;;;;3.50;2.00;;;37.20;44.40;;;;;;4977589;28;20549;-64
2022/08/05 12:26:47;;;;;;;2.13;2.03;;;36.80;44.40;;;;;;4977663;28;20562;-64
2022/08/05 12:29:15;;;;;;;3.20;2.80;;;36.60;44.70;;;;;;4977361;28;20443;-65
2022/08/05 12:31:46;;;;;;;2.00;1.90;;;36.60;46.50;;;;;;4977757;28;20478;-64
2022/08/05 12:34:13;;;;;;;2.50;2.40;;;36.50;45.10;;;;;;4977869;28;20449;-65
2022/08/05 12:36:41;;;;;;;6.90;2.50;;;36.50;45.30;;;;;;4977287;28;20465;-65
2022/08/05 12:39:08;;;;;;;2.60;2.40;;;36.40;46.30;;;;;;4977982;28;20453;-65
2022/08/05 12:41:36;;;;;;;2.53;2.30;;;36.50;45.70;;;;;;4976942;28;20481;-65
2022/08/05 12:44:06;;;;;;;2.10;2.00;;;36.90;45.30;;;;;;4976340;28;20455;-65
2022/08/05 12:46:34;;;;;;;4.13;2.33;;;37.10;44.60;;;;;;4976648;28;20902;-65
2022/08/05 12:49:05;;;;;;;3.33;2.70;;;36.70;44.30;;;;;;4977246;28;20477;-65
2022/08/05 12:51:43;;;;;;;2.90;2.17;;;36.50;44.50;;;;;;4978100;28;20481;-65
2022/08/05 12:54:09;;;;;;;3.53;2.30;;;36.20;46.70;;;;;;4977615;28;20442;-65
2022/08/05 12:56:41;;;;;;;5.23;2.07;;;36.10;45.80;;;;;;4977685;28;20458;-65
2022/08/05 12:59:14;;;;;;;2.10;2.00;;;36.00;45.90;;;;;;4977010;28;20435;-64
2022/08/05 13:01:42;;;;;;;2.40;2.20;;;35.80;46.50;;;;;;4976103;28;21055;-64
2022/08/05 13:04:10;;;;;;;2.50;2.40;;;35.50;46.30;;;;;;4976206;28;20450;-65
2022/08/05 13:06:42;;;;;;;2.20;2.10;;;35.30;47.30;;;;;;4976530;28;20465;-65
2022/08/05 13:09:10;;;;;;;2.43;2.33;;;35.20;47.10;;;;;;4976238;28;20485;-65
2022/08/05 13:11:42;;;;;;;2.47;2.27;;;34.90;46.70;;;;;;4976129;28;20489;-65
2022/08/05 13:14:18;;;;;;;2.30;2.20;;;34.90;46.70;;;;;;4976507;28;20450;-64
2022/08/05 13:16:47;;;;;;;6.63;2.47;;;34.90;47.10;;;;;;4977214;28;20910;-65
2022/08/05 13:19:14;;;;;;;2.63;2.43;;;34.70;47.20;;;;;;4977822;28;20458;-65
2022/08/05 13:21:40;;;;;;;3.20;2.20;;;34.70;47.50;;;;;;4977556;28;20458;-63
2022/08/05 13:24:07;;;;;;;2.53;2.20;;;34.80;47.40;;;;;;4977140;28;20458;-62
2022/08/05 13:26:34;;;;;;;2.70;2.50;;;35.00;48.00;;;;;;4977043;28;20207;-62
2022/08/05 13:29:01;;;;;;;4.90;2.40;;;35.00;47.00;;;;;;4976485;28;20474;-63
2022/08/05 13:31:29;;;;;;;2.20;2.10;;;34.80;47.50;;;;;;4976619;28;20479;-63
2022/08/05 13:33:56;;;;;;;2.57;2.37;;;34.40;47.70;;;;;;4976051;28;20461;-63
2022/08/05 13:36:23;;;;;;;2.47;2.27;;;34.10;48.50;;;;;;4975943;28;20455;-63
2022/08/05 13:38:49;;;;;;;2.60;2.10;;;33.80;48.90;;;;;;4975704;28;20801;-63
2022/08/05 13:41:16;;;;;;;2.70;2.50;;;33.60;48.70;;;;;;4975599;28;20486;-63
2022/08/05 13:43:43;;;;;;;5.47;2.33;;;33.50;49.80;;;;;;4975250;28;20906;-63
2022/08/05 13:46:11;;;;;;;2.93;2.73;;;33.60;50.40;;;;;;4974961;28;20957;-63
2022/08/05 13:48:39;;;;;;;2.43;2.33;;;33.70;50.90;;;;;;4975300;28;20529;-64
2022/08/05 13:51:07;;;;;;;2.93;2.53;;;33.80;51.30;;;;;;4975318;28;20477;-63
2022/08/05 13:53:33;;;;;;;2.40;2.30;;;33.90;50.00;;;;;;4975019;28;20458;-63
2022/08/05 13:56:00;;;;;;;5.07;2.83;;;34.00;50.40;;;;;;4975366;28;20486;-63
2022/08/05 13:58:27;;;;;;;4.23;2.33;;;33.60;50.50;;;;;;4975397;28;20873;-65
2022/08/05 14:00:54;;;;;;;2.50;2.30;;;33.60;50.80;;;;;;4975188;28;20482;-64
2022/08/05 14:03:20;;;;;;;2.70;2.50;;;33.50;51.60;;;;;;4975325;28;20461;-64
2022/08/05 14:05:50;;;;;;;2.90;2.70;;;33.60;51.30;;;;;;4975732;28;20530;-64
2022/08/05 14:08:17;;;;;;;2.60;2.40;;;34.00;50.50;;;;;;4977505;28;20890;-63
2022/08/05 14:10:44;;;;;;;3.00;2.20;;;34.00;50.20;;;;;;4977407;28;20480;-63
2022/08/05 14:13:10;;;;;;;2.23;2.13;;;33.80;50.50;;;;;;4976301;28;20493;-63
2022/08/05 14:15:37;;;;;;;4.30;2.50;;;33.80;50.40;;;;;;4975689;28;20968;-64
2022/08/05 14:18:04;;;;;;;2.50;2.30;;;33.70;50.80;;;;;;4974677;28;20961;-63
2022/08/05 14:20:31;;;;;;;2.80;2.60;;;33.50;51.30;;;;;;4974481;28;21013;-66
2022/08/05 14:23:00;;;;;;;2.60;2.40;;;33.30;51.70;;;;;;4974894;28;20465;-63
2022/08/05 14:25:27;;;;;;;3.57;2.60;;;33.30;51.90;;;;;;4975097;28;20454;-63
2022/08/05 14:27:54;;;;;;;3.53;2.90;;;33.30;51.80;;;;;;4974749;28;20509;-63
2022/08/05 14:30:20;;;;;;;2.57;2.37;;;33.50;52.00;;;;;;4974512;28;20461;-63
2022/08/05 14:32:47;;;;;;;2.20;2.10;;;33.60;51.50;;;;;;4974841;28;20817;-63
2022/08/05 14:35:15;;;;;;;4.23;3.43;;;33.80;51.70;;;;;;4974759;28;20458;-63
2022/08/05 14:37:41;;;;;;;8.03;3.03;;;33.60;52.50;;;;;;4974801;28;20532;-64
2022/08/05 14:40:11;;;;;;;5.07;2.97;;;33.10;53.60;;;;;;4974148;28;20861;-64
2022/08/05 14:42:39;;;;;;;6.73;3.63;;;32.80;54.30;;;;;;4974320;28;20485;-63
2022/08/05 14:45:08;;;;;;;2.90;2.70;;;32.60;55.10;;;;;;4974124;28;20879;-62
2022/08/05 14:47:35;;;;;;;4.10;3.10;;;32.50;55.20;;;;;;4974266;28;20494;-62
2022/08/05 14:50:01;;;;;;;3.70;2.83;;;32.70;55.40;;;;;;4974367;28;20957;-62
2022/08/05 14:52:28;;;;;;;3.33;2.70;;;32.80;55.90;;;;;;4974461;28;20478;-63
2022/08/05 14:54:55;;;;;;;6.70;2.87;;;33.00;55.60;;;;;;4974505;28;20454;-63
2022/08/05 14:57:23;;;;;;;4.13;3.27;;;33.10;54.90;;;;;;4974244;28;20954;-66
2022/08/05 14:59:50;;;;;;;3.57;3.27;;;33.10;55.40;;;;;;4975024;28;20454;-66
2022/08/05 15:02:16;;;;;;;4.27;3.87;;;33.20;56.20;;;;;;4973981;28;20486;-66
2022/08/05 15:04:43;;;;;;;3.40;3.20;;;33.00;56.20;;;;;;4974431;28;20454;-66
2022/08/05 15:07:10;;;;;;;6.53;3.40;;;32.80;56.70;;;;;;4977344;28;20462;-66
2022/08/05 15:09:37;;;;;;;5.10;3.10;;;32.60;57.40;;;;;;4977916;28;20485;-65
2022/08/05 15:12:05;;;;;;;3.90;3.20;;;32.50;57.30;;;;;;4977746;28;20938;-65
2022/08/05 15:14:33;;;;;;;3.97;3.47;;;32.40;57.70;;;;;;4977978;28;20464;-66
2022/08/05 15:17:00;;;;;;;7.33;3.57;;;32.10;58.40;;;;;;4977634;28;21016;-66
2022/08/05 15:19:26;;;;;;;3.77;3.33;;;31.90;58.90;;;;;;4977965;28;20451;-66
2022/08/05 15:21:53;;;;;;;4.17;3.33;;;31.80;59.00;;;;;;4977749;28;20478;-65
2022/08/05 15:24:20;;;;;;;4.50;3.63;;;31.90;59.30;;;;;;4977442;28;20450;-66
2022/08/05 15:26:47;;;;;;;4.97;3.40;;;31.80;59.10;;;;;;4977733;28;20462;-66
2022/08/05 15:29:13;;;;;;;3.57;3.30;;;31.80;59.60;;;;;;4977265;28;21020;-66
2022/08/05 15:31:41;;;;;;;3.30;3.00;;;31.90;59.00;;;;;;4977229;28;20478;-65
2022/08/05 15:34:08;;;;;;;4.33;3.83;;;31.80;59.10;;;;;;4977728;28;20463;-66
2022/08/05 15:36:35;;;;;;;4.60;3.50;;;31.60;59.20;;;;;;4977683;28;20873;-66
2022/08/05 15:39:01;;;;;;;3.67;3.47;;;31.60;59.80;;;;;;4977462;28;20454;-66
2022/08/05 15:41:28;;;;;;;3.33;3.07;;;31.50;59.90;;;;;;4977424;28;20482;-66
2022/08/05 15:43:55;;;;;;;4.67;3.23;;;31.50;60.10;;;;;;4977216;28;20450;-66
2022/08/05 15:46:22;;;;;;;5.27;3.00;;;31.60;60.70;;;;;;4977699;28;20459;-66
2022/08/05 15:48:51;;;;;;;3.80;2.97;;;31.60;60.30;;;;;;4977114;28;20818;-66
2022/08/05 15:51:21;;;;;;;3.70;3.40;;;31.70;60.60;;;;;;4977474;28;20481;-68
2022/08/05 15:53:48;;;;;;;3.83;3.53;;;31.60;60.40;;;;;;4977629;28;20522;-66
2022/08/05 15:56:15;;;;;;;4.30;2.80;;;31.60;60.90;;;;;;4977614;28;20450;-66
2022/08/05 15:58:42;;;;;;;4.20;3.90;;;31.40;61.10;;;;;;4977396;28;20841;-66
2022/08/05 16:01:12;;;;;;;5.00;3.90;;;31.20;61.20;;;;;;4977146;28;20486;-66
2022/08/05 16:03:39;;;;;;;4.27;3.87;;;31.00;61.90;;;;;;4977683;28;20439;-66
2022/08/05 16:06:07;;;;;;;3.90;3.70;;;30.90;62.60;;;;;;4977474;28;20850;-66
2022/08/05 16:08:34;;;;;;;4.17;3.73;;;31.00;63.00;;;;;;4977248;28;20485;-66
2022/08/05 16:11:01;;;;;;;6.80;3.80;;;30.90;62.90;;;;;;4976879;28;20478;-62
2022/08/05 16:13:28;;;;;;;3.60;3.00;;;30.80;62.90;;;;;;4977133;28;20949;-63
2022/08/05 16:15:55;;;;;;;4.43;3.97;;;30.60;63.50;;;;;;4977148;28;20969;-63
2022/08/05 16:18:21;;;;;;;3.63;3.37;;;30.40;63.70;;;;;;4976930;28;20506;-63
2022/08/05 16:20:48;;;;;;;4.00;3.70;;;30.30;64.10;;;;;;4976621;28;20482;-63
2022/08/05 16:23:16;;;;;;;3.40;3.20;;;30.20;64.20;;;;;;4976521;28;20816;-63
2022/08/05 16:25:43;;;;;;;3.77;3.57;;;30.10;65.20;;;;;;4976872;28;20454;-64
2022/08/05 16:28:09;;;;;;;4.07;3.77;;;30.00;65.50;;;;;;4976748;28;20814;-66
2022/08/05 16:30:36;;;;;;;3.80;3.50;;;29.90;66.20;;;;;;4976914;28;20466;-67
2022/08/05 16:33:03;;;;;;;4.27;3.53;;;29.70;66.50;;;;;;4976622;28;20451;-66
2022/08/05 16:35:30;;;;;;;4.30;3.90;;;29.70;66.80;;;;;;4977184;28;20854;-66
2022/08/05 16:37:56;;;;;;;3.80;3.50;;;29.60;65.90;;;;;;4976703;28;20481;-66
2022/08/05 16:40:25;;;;;;;4.10;3.80;;;29.50;66.30;;;;;;4976612;28;20451;-66
2022/08/05 16:42:51;;;;;;;4.07;3.70;;;29.40;66.80;;;;;;4976437;28;20466;-66
2022/08/05 16:45:18;;;;;;;6.00;4.10;;;29.30;67.40;;;;;;4976495;28;20454;-66
2022/08/05 16:47:45;;;;;;;4.10;3.53;;;29.10;68.30;;;;;;4976329;28;20458;-66
2022/08/05 16:50:12;;;;;;;3.90;3.60;;;28.90;68.90;;;;;;4975873;28;20994;-66
2022/08/05 16:52:38;;;;;;;5.93;3.40;;;28.70;69.60;;;;;;4976088;28;20503;-66
2022/08/05 16:55:06;;;;;;;4.43;2.90;;;28.70;68.60;;;;;;4976280;28;20455;-66